Time;durP1;ratioP1;P1;durP2;ratioP2;P2;SDS_P1;SDS_P2;PMS_P1;PMS_P2;Temp;Humidity;BMP_temperature;BMP_pressure;BME280_temperature;BME280_humidity;BME280_pressure;Samples;Min_cycle;Max_cycle;Signal;HPM_P1;HPM_P2
2022/08/12 00:44:15;;;;;;;4.80;4.28;;;;;;;19.16;nan;101910.47;5025819;28;20104;-61
2022/08/12 00:46:49;;;;;;;4.95;4.43;;;;;;;18.96;nan;101871.47;5011460;28;20034;-61
2022/08/12 00:49:16;;;;;;;8.45;4.65;;;;;;;19.07;nan;101895.81;5012850;28;20030;-63
2022/08/12 00:54:26;;;;;;;7.82;4.47;;;;;;;18.99;nan;101911.34;5012479;28;20081;-63
2022/08/12 00:56:53;;;;;;;5.90;4.60;;;;;;;18.86;nan;101878.19;5011391;28;20034;-62
2022/08/12 00:59:18;;;;;;;7.93;4.95;;;;;;;18.78;nan;101875.06;5012748;28;20390;-62
2022/08/12 01:01:46;;;;;;;8.45;4.40;;;;;;;18.74;nan;101862.81;5011296;28;20065;-62
2022/08/12 01:12:26;;;;;;;6.13;5.45;;;;;;;;;;5025427;28;20041;-64
2022/08/12 01:14:53;;;;;;;5.28;4.68;;;;;;;;;;5012093;28;20042;-61
2022/08/12 01:17:20;;;;;;;5.90;4.88;;;;;;;;;;5027479;28;20038;-62
2022/08/12 01:19:47;;;;;;;5.45;4.97;;;;;;;;;;5012267;28;20436;-63
2022/08/12 01:22:25;;;;;;;5.65;5.18;;;;;;;;;;5010860;28;20408;-60
2022/08/12 01:25:05;;;;;;;6.60;5.15;;;;;;;;;;5012189;28;20038;-63
2022/08/12 01:27:33;;;;;;;5.57;4.97;;;;;;;18.58;nan;101914.31;5012347;28;20104;-60
2022/08/12 01:30:00;;;;;;;9.30;5.20;;;;;;;18.54;nan;101906.47;5010880;28;20487;-63
2022/08/12 01:32:27;;;;;;;5.45;4.93;;;;;;;18.59;nan;101914.25;5011940;28;20096;-65
2022/08/12 01:34:52;;;;;;;7.43;5.45;;;;;;;18.55;nan;101915.34;5012256;28;20026;-65
2022/08/12 01:37:21;;;;;;;8.20;4.95;;;;;;;18.15;nan;101856.84;5012237;28;20030;-61
2022/08/12 01:39:53;;;;;;;7.10;4.70;;;;;;;18.46;nan;101913.94;5010999;28;20049;-62
2022/08/12 01:42:20;;;;;;;6.00;4.95;;;;;;;18.41;nan;101897.31;5012016;28;20481;-65
2022/08/12 01:44:46;;;;;;;7.03;5.60;;;;;;;18.32;nan;101880.88;5011952;28;20038;-62
2022/08/12 01:47:22;;;;;;;6.78;4.85;;;;;;;18.41;nan;101904.44;5011923;28;20069;-61
2022/08/12 01:50:13;;;;;;;6.00;5.40;;;;;;;18.42;nan;101904.34;4994486;28;20038;-61
2022/08/12 01:52:53;;;;;;;6.35;5.25;;;;;;;18.39;nan;101904.50;5015755;28;20108;-62
2022/08/12 01:55:22;;;;;;;7.45;5.53;;;;;;;18.35;nan;101902.94;5015539;28;20034;-63
2022/08/12 01:58:06;;;;;;;5.70;5.03;;;;;;;18.32;nan;101892.41;5031412;28;20121;-62
2022/08/12 02:00:43;;;;;;;5.95;5.35;;;;;;;18.35;nan;101888.75;5014353;28;20103;-62
2022/08/12 02:12:19;;;;;;;5.90;5.30;;;;;;;17.98;nan;101823.00;5015547;28;20052;-62
2022/08/12 02:15:11;;;;;;;5.95;5.38;;;;;;;18.32;nan;101889.75;5030594;28;20073;-62
2022/08/12 02:17:56;;;;;;;7.05;5.72;;;;;;;18.32;nan;101888.88;5015186;28;20033;-62
2022/08/12 02:20:48;;;;;;;5.95;5.40;;;;;;;18.35;nan;101889.59;5015323;28;20025;-63
2022/08/12 02:23:14;;;;;;;5.43;5.03;;;;;;;18.03;nan;101829.00;5013790;28;20036;-62
2022/08/12 02:25:44;;;;;;;6.70;5.72;;;;;;;18.34;nan;101887.88;5015098;28;20037;-63
2022/08/12 02:28:10;;;;;;;8.35;6.10;;;;;;;18.07;nan;101846.53;5015052;28;20088;-61
2022/08/12 02:30:38;;;;;;;6.35;5.65;;;;;;;18.05;nan;101839.56;5014940;28;20041;-62
2022/08/12 02:33:05;;;;;;;6.45;5.78;;;;;;;18.30;nan;101880.09;5013480;28;20045;-62
2022/08/12 02:35:33;;;;;;;8.10;5.60;;;;;;;17.97;nan;101822.16;5013757;28;20065;-62
2022/08/12 02:38:00;;;;;;;6.57;5.90;;;;;;;18.26;nan;101886.50;5013687;28;20034;-65
2022/08/12 02:40:27;;;;;;;5.85;5.25;;;;;;;18.12;nan;101855.19;5014932;28;20508;-61
2022/08/12 02:43:13;;;;;;;6.28;5.68;;;;;;;17.98;nan;101838.97;5015083;28;20065;-61
2022/08/12 02:45:46;;;;;;;5.82;5.25;;;;;;;17.94;nan;101826.75;5013592;28;20053;-61
2022/08/12 02:48:27;;;;;;;7.50;5.70;;;;;;;18.14;nan;101863.97;5014611;28;20380;-61
2022/08/12 02:50:56;;;;;;;5.93;5.35;;;;;;;17.97;nan;101835.47;5014814;28;20036;-66
2022/08/12 02:53:22;;;;;;;9.05;5.88;;;;;;;17.89;nan;101816.31;5014595;28;20409;-61
2022/08/12 02:55:47;;;;;;;12.70;7.07;;;;;;;17.88;nan;101843.91;5013455;28;20092;-63
2022/08/12 02:58:13;;;;;;;8.20;5.80;;;;;;;17.86;nan;101802.28;5014595;28;20084;-61
2022/08/12 03:00:39;;;;;;;7.68;5.88;;;;;;;18.15;nan;101870.19;5013241;28;20034;-65
2022/08/12 03:03:07;;;;;;;6.95;6.32;;;;;;;17.90;nan;101815.38;5012631;28;20124;-60
2022/08/12 03:05:35;;;;;;;8.77;6.90;;;;;;;17.97;nan;101832.81;5014263;28;20042;-63
2022/08/12 03:08:03;;;;;;;8.00;6.63;;;;;;;17.86;nan;101811.13;5014579;28;20040;-61
2022/08/12 03:10:35;;;;;;;8.30;6.70;;;;;;;18.05;nan;101848.41;5014463;28;20036;-60
2022/08/12 03:13:02;;;;;;;9.43;6.30;;;;;;;18.03;nan;101854.75;5012865;28;20034;-60
2022/08/12 03:15:29;;;;;;;7.05;6.32;;;;;;;17.98;nan;101844.31;5029288;28;20034;-61
2022/08/12 03:17:59;;;;;;;7.07;5.85;;;;;;;17.96;nan;101844.41;5012905;28;20037;-60
2022/08/12 03:20:25;;;;;;;6.97;6.38;;;;;;;17.85;nan;101828.06;5014037;28;20465;-61
2022/08/12 03:22:51;;;;;;;6.82;6.13;;;;;;;17.73;nan;101817.09;5013888;28;20050;-62
2022/08/12 03:25:26;;;;;;;6.68;6.10;;;;;;;17.86;nan;101839.56;5014143;28;20065;-60
2022/08/12 03:27:56;;;;;;;8.95;6.20;;;;;;;17.59;nan;101800.91;5013880;28;20556;-61
2022/08/12 03:30:30;;;;;;;7.18;6.57;;;;;;;17.72;nan;101824.22;5013930;28;20074;-61
2022/08/12 03:32:56;;;;;;;7.22;6.32;;;;;;;17.78;nan;101847.03;5012311;28;20489;-60
2022/08/12 03:35:26;;;;;;;7.10;6.50;;;;;;;17.55;nan;101801.97;5014027;28;20048;-60
2022/08/12 03:37:57;;;;;;;6.68;6.03;;;;;;;17.73;nan;101833.94;5013836;28;20113;-64
2022/08/12 04:02:23;;;;;;;8.13;6.68;;;;;;;17.57;nan;101838.22;5013431;28;20184;-62
2022/08/12 04:04:48;;;;;;;6.72;6.13;;;;;;;17.51;nan;101822.53;5013472;28;20033;-61
2022/08/12 04:07:15;;;;;;;6.75;6.15;;;;;;;17.28;nan;101783.63;5028776;28;20036;-61
2022/08/12 04:09:42;;;;;;;7.13;6.43;;;;;;;17.60;nan;101831.94;5013180;28;20117;-62
2022/08/12 04:14:55;;;;;;;7.32;6.57;;;;;;;17.34;nan;101787.81;5012767;28;20068;-65
2022/08/12 04:17:21;;;;;;;8.98;7.15;;;;;;;17.35;nan;101789.53;5029116;28;20041;-63
2022/08/12 04:19:47;;;;;;;9.38;7.25;;;;;;;17.58;nan;101834.66;5013142;28;20063;-62
2022/08/12 04:22:14;;;;;;;7.80;6.78;;;;;;;17.45;nan;101807.69;5012794;28;20049;-62
2022/08/12 04:24:40;;;;;;;9.13;7.32;;;;;;;17.53;nan;101820.66;5012648;28;20046;-65
2022/08/12 04:27:07;;;;;;;7.43;6.72;;;;;;;17.43;nan;101792.72;5011653;28;20034;-61
2022/08/12 04:29:33;;;;;;;7.07;6.35;;;;;;;17.37;nan;101795.66;5011725;28;20441;-65
2022/08/12 04:31:58;;;;;;;7.25;6.45;;;;;;;17.56;nan;101811.69;5000422;28;20021;-64
2022/08/12 04:34:24;;;;;;;9.15;6.97;;;;;;;17.56;nan;101823.22;5032026;28;20577;-62
2022/08/12 04:36:50;;;;;;;7.88;7.03;;;;;;;17.58;nan;101834.66;5031649;28;20493;-64
2022/08/12 04:39:16;;;;;;;12.25;6.80;;;;;;;17.45;nan;101815.66;5032223;28;20068;-63
2022/08/12 04:41:43;;;;;;;7.68;6.93;;;;;;;17.57;nan;101835.56;5046625;28;20060;-63
2022/08/12 04:44:08;;;;;;;8.98;7.05;;;;;;;17.56;nan;101825.88;5036213;28;20577;-62
2022/08/12 04:46:34;;;;;;;8.90;7.22;;;;;;;17.31;nan;101782.63;5025475;28;20148;-61
2022/08/12 04:49:01;;;;;;;8.55;7.65;;;;;;;17.22;nan;101773.25;5032323;28;20037;-61
2022/08/12 04:51:27;;;;;;;8.85;7.97;;;;;;;17.61;nan;101833.63;5030834;28;20481;-65
2022/08/12 04:53:52;;;;;;;9.95;7.13;;;;;;;17.26;nan;101782.84;5031719;28;20049;-62
2022/08/12 04:56:17;;;;;;;12.23;7.22;;;;;;;17.21;nan;101770.69;5030867;28;20041;-62
2022/08/12 04:58:44;;;;;;;8.23;7.35;;;;;;;17.60;nan;101846.09;5031158;28;20045;-65
2022/08/12 05:01:09;;;;;;;8.45;6.40;;;;;;;17.61;nan;101842.50;5031988;28;20029;-61
2022/08/12 05:03:36;;;;;;;8.52;7.72;;;;;;;17.22;nan;101773.25;5031675;28;20057;-61
2022/08/12 05:06:03;;;;;;;7.93;7.18;;;;;;;17.42;nan;101818.47;5030818;28;20350;-61
2022/08/12 05:08:29;;;;;;;8.52;7.38;;;;;;;17.48;nan;101832.44;5030995;28;20511;-62
2022/08/12 05:10:55;;;;;;;7.88;6.82;;;;;;;17.24;nan;101782.06;5030428;28;20045;-61
2022/08/12 05:13:23;;;;;;;7.63;6.93;;;;;;;17.18;nan;101770.81;5030212;28;20091;-61
2022/08/12 05:15:48;;;;;;;8.38;7.25;;;;;;;17.56;nan;101833.00;5031933;28;20456;-61
2022/08/12 05:18:15;;;;;;;8.73;6.32;;;;;;;17.54;nan;101827.72;5032120;28;20084;-62
2022/08/12 05:20:44;;;;;;;10.90;7.70;;;;;;;17.45;nan;101823.66;5030696;28;20404;-62
2022/08/12 05:23:16;;;;;;;8.68;6.47;;;;;;;17.58;nan;101836.44;5031272;28;20411;-61
2022/08/12 05:25:45;;;;;;;7.25;6.65;;;;;;;17.66;nan;101836.97;5034816;28;20042;-62
2022/08/12 05:28:12;;;;;;;7.68;6.88;;;;;;;17.49;nan;101811.06;5035754;28;20041;-61
2022/08/12 05:30:38;;;;;;;9.95;7.70;;;;;;;17.66;nan;101829.81;5034352;28;20029;-62
2022/08/12 05:33:04;;;;;;;7.07;6.38;;;;;;;17.76;nan;101827.63;5035263;28;20072;-64
2022/08/12 05:35:41;;;;;;;8.57;6.90;;;;;;;17.59;nan;101779.59;5035577;28;20106;-63
2022/08/12 05:40:55;;;;;;;8.25;6.70;;;;;;;18.17;nan;101844.31;5035257;28;20103;-62
2022/08/12 05:43:21;;;;;;;7.47;6.65;;;;;;;17.99;nan;101795.44;5035680;28;20038;-62
2022/08/12 05:45:46;;;;;;;9.50;6.07;;;;;;;18.42;nan;101855.50;5035767;28;20473;-62
2022/08/12 05:48:13;;;;;;;9.40;6.38;;;;;;;18.44;nan;101841.19;5033912;28;20469;-63
2022/08/12 05:50:39;;;;;;;8.25;6.95;;;;;;;18.67;nan;101857.88;5050983;28;20042;-61
2022/08/12 05:53:05;;;;;;;6.20;5.60;;;;;;;18.37;nan;101797.09;5035035;28;20088;-61
2022/08/12 05:55:31;;;;;;;9.27;6.60;;;;;;;18.86;nan;101859.53;5035347;28;20029;-63
2022/08/12 05:57:57;;;;;;;7.70;6.18;;;;;;;18.92;nan;101861.88;5035559;28;20040;-61
2022/08/12 06:00:27;;;;;;;6.20;5.60;;;;;;;19.07;nan;101870.91;5034193;28;20022;-62
2022/08/12 06:02:59;;;;;;;6.22;5.63;;;;;;;18.86;nan;101815.97;5033683;28;20033;-62
2022/08/12 06:05:36;;;;;;;7.00;6.30;;;;;;;18.88;nan;101800.78;5035122;28;20120;-61
2022/08/12 06:08:05;;;;;;;6.63;5.53;;;;;;;19.40;nan;101874.53;5050695;28;20037;-63
2022/08/12 06:10:35;;;;;;;7.07;5.13;;;;;;;19.50;nan;101877.56;5034958;28;20448;-61
2022/08/12 06:13:02;;;;;;;7.37;5.63;;;;;;;19.60;nan;101866.34;5048459;28;20029;-62
2022/08/12 06:15:28;;;;;;;6.82;6.15;;;;;;;19.70;nan;101866.72;5035019;28;20112;-60
2022/08/12 06:18:04;;;;;;;7.38;5.70;;;;;;;19.77;nan;101861.88;5035134;28;20037;-59
2022/08/12 06:20:29;;;;;;;6.95;5.82;;;;;;;19.54;nan;101807.03;5050002;28;20048;-61
2022/08/12 06:22:54;;;;;;;8.45;5.10;;;;;;;20.00;nan;101867.69;5034454;28;20132;-63
2022/08/12 06:25:20;;;;;;;6.15;5.55;;;;;;;20.06;nan;101880.72;5034888;28;20033;-61
2022/08/12 06:27:47;;;;;;;6.90;5.75;;;;;;;19.93;nan;101831.59;5033765;28;20064;-60
2022/08/12 06:30:19;;;;;;;5.85;5.30;;;;;;;20.28;nan;101871.53;5035091;28;20037;-62
2022/08/12 06:32:46;;;;;;;6.53;5.20;;;;;;;20.31;nan;101876.72;5034564;28;20485;-61
2022/08/12 06:35:12;;;;;;;5.32;4.82;;;;;;;20.17;nan;101823.97;5033264;28;20087;-62
2022/08/12 06:37:39;;;;;;;11.13;4.97;;;;;;;20.32;nan;101824.94;5012866;28;20197;-64
2022/08/12 06:40:09;;;;;;;5.35;4.68;;;;;;;20.72;nan;101872.53;5022886;28;20038;-61
2022/08/12 06:42:50;;;;;;;5.90;4.70;;;;;;;20.82;nan;101875.50;5033296;28;20041;-61
2022/08/12 06:45:18;;;;;;;8.48;5.63;;;;;;;20.97;nan;101888.00;5034451;28;20055;-61
2022/08/12 06:47:45;;;;;;;4.95;4.40;;;;;;;21.04;nan;101873.31;5034430;28;20038;-61
2022/08/12 06:50:17;;;;;;;5.53;4.82;;;;;;;20.96;nan;101846.09;5034436;28;20065;-62
2022/08/12 06:52:45;;;;;;;10.13;4.53;;;;;;;21.38;nan;101888.22;5016650;28;20064;-62
2022/08/12 06:55:14;;;;;;;6.78;5.00;;;;;;;21.45;nan;101897.63;5033284;28;20080;-63
2022/08/12 06:58:00;;;;;;;6.57;4.70;;;;;;;21.29;nan;101838.75;5034280;28;20524;-63
2022/08/12 07:00:29;;;;;;;6.57;5.25;;;;;;;21.72;nan;101902.13;5034249;28;20442;-62
2022/08/12 07:02:55;;;;;;;6.75;4.93;;;;;;;21.83;nan;101891.59;5034350;28;20037;-61
2022/08/12 07:05:24;;;;;;;5.75;5.20;;;;;;;21.67;nan;101853.34;5033959;28;20040;-61
2022/08/12 07:07:52;;;;;;;6.68;5.40;;;;;;;22.06;nan;101900.06;5034324;28;20045;-61
2022/08/12 07:10:21;;;;;;;5.90;4.93;;;;;;;22.15;nan;101900.34;5033825;28;20030;-62
2022/08/12 07:12:52;;;;;;;6.20;5.28;;;;;;;22.18;nan;101877.84;5033550;28;20107;-62
2022/08/12 07:15:19;;;;;;;6.30;5.70;;;;;;;22.08;nan;101856.09;5032487;28;20037;-62
2022/08/12 07:17:44;;;;;;;8.02;5.90;;;;;;;22.41;nan;101885.25;5033672;28;20057;-62
2022/08/12 07:20:10;;;;;;;8.35;5.43;;;;;;;22.23;nan;101839.03;5033863;28;20111;-63
2022/08/12 07:22:36;;;;;;;7.20;5.43;;;;;;;22.68;nan;101899.53;5032546;28;20033;-66
2022/08/12 07:27:45;;;;;;;7.40;5.50;;;;;;;22.76;nan;101837.31;5046840;28;20377;-62
2022/08/12 07:30:11;;;;;;;6.22;5.55;;;;;;;23.16;nan;101902.59;5033461;28;20041;-60
2022/08/12 07:32:37;;;;;;;8.52;5.13;;;;;;;23.01;nan;101858.84;5033100;28;20130;-60
2022/08/12 07:35:02;;;;;;;6.72;6.00;;;;;;;23.12;nan;101875.09;5033432;28;20049;-62
2022/08/12 07:37:28;;;;;;;10.63;5.82;;;;;;;23.46;nan;101908.59;5033428;28;20041;-63
2022/08/12 07:39:53;;;;;;;10.20;6.30;;;;;;;23.41;nan;101867.72;5033576;28;20110;-61
2022/08/12 07:42:19;;;;;;;9.10;5.50;;;;;;;23.81;nan;101908.81;5015268;28;20156;-65
2022/08/12 07:44:46;;;;;;;6.15;5.55;;;;;;;23.96;nan;101895.09;5033225;28;20029;-62
2022/08/12 07:47:11;;;;;;;6.15;5.00;;;;;;;24.27;nan;101869.59;5034913;28;20042;-61
2022/08/12 07:49:36;;;;;;;8.43;5.53;;;;;;;25.23;nan;101932.38;5013376;28;20038;-65
2022/08/12 07:52:02;;;;;;;8.20;4.90;;;;;;;25.84;nan;101929.34;5014338;28;20067;-63
2022/08/12 07:54:27;;;;;;;7.80;5.10;;;;;;;26.43;nan;101940.78;5032978;28;20029;-63
2022/08/12 07:56:53;;;;;;;6.07;5.10;;;;;;;26.77;nan;101944.25;5032747;28;20057;-62
2022/08/12 07:59:19;;;;;;;6.95;5.35;;;;;;;27.30;nan;101939.78;5033028;28;20320;-62
2022/08/12 08:01:44;;;;;;;5.63;5.03;;;;;;;27.67;nan;101945.63;5033022;28;20455;-63
2022/08/12 08:06:54;;;;;;;9.55;5.00;;;;;;;28.78;nan;101956.34;5033094;28;20064;-62
2022/08/12 08:09:21;;;;;;;5.55;5.03;;;;;;;29.32;nan;101955.84;5048371;28;20461;-62
2022/08/12 08:14:31;;;;;;;5.55;4.30;;;;;;;28.91;nan;101924.44;5033046;28;20416;-62
2022/08/12 08:16:58;;;;;;;6.85;4.32;;;;;;;29.36;nan;101930.16;5032944;28;20034;-62
2022/08/12 08:19:25;;;;;;;6.65;4.55;;;;;;;29.46;nan;101960.84;5031478;28;20444;-62
2022/08/12 08:21:53;;;;;;;6.50;4.47;;;;;;;29.49;nan;101927.13;5032416;28;20069;-62
2022/08/12 08:24:19;;;;;;;7.70;4.80;;;;;;;29.96;nan;101969.59;5031426;28;20057;-62
2022/08/12 08:26:48;;;;;;;4.45;4.03;;;;;;;29.79;nan;101935.06;5031470;28;20037;-63
2022/08/12 08:29:14;;;;;;;7.35;4.25;;;;;;;29.89;nan;101940.50;5032758;28;20409;-60
2022/08/12 08:31:50;;;;;;;6.18;4.00;;;;;;;30.25;nan;101963.19;5031207;28;20039;-65
2022/08/12 08:34:17;;;;;;;4.80;3.60;;;;;;;30.76;nan;101976.25;5031158;28;20029;-65
2022/08/12 08:36:43;;;;;;;5.32;3.80;;;;;;;31.16;nan;101977.56;5032476;28;20445;-65
2022/08/12 08:39:10;;;;;;;5.13;3.80;;;;;;;31.55;nan;101979.97;5032432;28;20075;-66
2022/08/12 08:44:19;;;;;;;5.75;4.47;;;;;;;31.33;nan;101931.44;5032107;28;20048;-66
2022/08/12 08:46:45;;;;;;;7.60;4.72;;;;;;;30.99;nan;101948.50;5032298;28;20041;-64
2022/08/12 08:49:11;;;;;;;7.60;5.00;;;;;;;31.07;nan;101972.19;5031747;28;20033;-64
2022/08/12 08:51:37;;;;;;;6.60;3.90;;;;;;;31.17;nan;101981.16;5031861;28;20037;-61
2022/08/12 08:54:05;;;;;;;5.28;3.78;;;;;;;31.35;nan;101981.97;5031838;28;20053;-61
2022/08/12 08:56:31;;;;;;;19.67;7.55;;;;;;;31.81;nan;101961.78;5047492;28;20172;-61
2022/08/12 08:58:56;;;;;;;7.13;4.60;;;;;;;31.87;nan;101977.47;5032177;28;20074;-61
2022/08/12 09:01:22;;;;;;;20.45;7.35;;;;;;;31.51;nan;101915.97;5040708;28;20405;-62
2022/08/12 09:03:48;;;;;;;9.57;4.22;;;;;;;32.04;nan;101973.88;5022481;28;20116;-62
2022/08/12 09:06:14;;;;;;;6.90;4.00;;;;;;;32.04;nan;101951.22;5029341;28;20038;-62
2022/08/12 09:08:43;;;;;;;8.32;3.13;;;;;;;32.21;nan;101969.34;5030558;28;20539;-62
2022/08/12 09:13:52;;;;;;;4.78;3.60;;;;;;;32.13;nan;101985.66;5016900;28;20044;-62
2022/08/12 09:16:19;;;;;;;6.05;3.40;;;;;;;32.35;nan;101946.06;5031478;28;20041;-62
2022/08/12 09:18:44;;;;;;;6.30;3.13;;;;;;;33.02;nan;101977.81;5030711;28;20037;-62
2022/08/12 09:21:10;;;;;;;6.43;3.75;;;;;;;33.14;nan;101977.34;5031698;28;20549;-61
2022/08/12 09:23:35;;;;;;;3.30;2.97;;;;;;;32.87;nan;101947.63;5032033;28;20033;-60
2022/08/12 09:26:01;;;;;;;9.63;3.25;;;;;;;33.29;nan;101942.91;5030752;28;20103;-60
2022/08/12 09:28:27;;;;;;;7.40;3.60;;;;;;;33.63;nan;101974.66;5031865;28;20040;-60
2022/08/12 09:30:56;;;;;;;3.40;2.95;;;;;;;33.35;nan;101931.31;5030390;28;20388;-61
2022/08/12 09:33:21;;;;;;;4.10;3.15;;;;;;;33.46;nan;101938.31;5031666;28;20117;-60
2022/08/12 09:35:46;;;;;;;6.30;3.47;;;;;;;33.86;nan;101967.44;5031753;28;20065;-62
2022/08/12 09:38:16;;;;;;;4.45;3.42;;;;;;;33.93;nan;101946.59;5030590;28;20056;-62
2022/08/12 09:40:42;;;;;;;3.45;3.15;;;;;;;33.72;nan;101958.09;5014543;28;20047;-62
2022/08/12 09:45:52;;;;;;;4.95;2.95;;;;;;;34.23;nan;101954.06;5031203;28;20071;-62
2022/08/12 09:48:18;;;;;;;4.55;3.50;;;;;;;34.65;nan;101970.09;5031817;28;20477;-61
2022/08/12 09:50:45;;;;;;;5.85;3.15;;;;;;;35.08;nan;101952.25;5031388;28;20057;-61
2022/08/12 09:53:15;;;;;;;5.40;3.53;;;;;;;35.02;nan;101969.38;5031390;28;20060;-61
2022/08/12 09:55:51;;;;;;;7.60;3.10;;;;;;;34.84;nan;101947.78;5031826;28;20032;-63
2022/08/12 09:58:27;;;;;;;4.45;3.05;;;;;;;34.48;nan;101889.16;5031331;28;20439;-64
2022/08/12 10:01:00;;;;;;;6.72;3.60;;;;;;;34.92;nan;101947.72;5031715;28;20029;-64
2022/08/12 10:03:31;;;;;;;7.53;3.42;;;;;;;34.68;nan;101920.50;5031392;28;20029;-62
2022/08/12 10:06:01;;;;;;;5.10;2.85;;;;;;;34.82;nan;101929.84;5030031;28;20025;-61
2022/08/12 10:08:31;;;;;;;6.78;3.40;;;;;;;35.12;nan;101933.56;5030108;28;20033;-61
2022/08/12 10:13:41;;;;;;;8.20;2.53;;;;;;;35.41;nan;101904.38;5028266;28;19955;-60
2022/08/12 10:16:13;;;;;;;4.82;2.75;;;;;;;35.61;nan;101893.81;5015388;28;20290;-62
2022/08/12 10:18:41;;;;;;;4.57;2.70;;;;;;;35.95;nan;101937.91;5015166;28;20028;-61
2022/08/12 10:21:14;;;;;;;5.18;2.65;;;;;;;36.26;nan;101925.91;5015349;28;20121;-60
2022/08/12 10:23:42;;;;;;;3.83;2.60;;;;;;;36.58;nan;101925.50;5015249;28;20389;-59
2022/08/12 10:31:37;;;;;;;4.00;2.88;;;;;;;37.00;nan;101922.81;5014748;28;20044;-60
2022/08/12 10:34:04;;;;;;;5.65;2.58;;;;;;;36.44;nan;101849.56;5013477;28;20121;-59
2022/08/12 10:36:31;;;;;;;8.18;3.63;;;;;;;36.82;nan;101919.66;5014912;28;20030;-60
2022/08/12 10:38:56;;;;;;;4.60;2.58;;;;;;;37.02;nan;101879.56;5030265;28;20030;-60
2022/08/12 10:44:06;;;;;;;4.05;2.10;;;;;;;37.95;nan;101912.19;5014644;28;20088;-60
2022/08/12 10:46:33;;;;;;;5.85;2.42;;;;;;;37.86;nan;101877.63;5029903;28;20492;-61
2022/08/12 10:48:59;;;;;;;3.72;2.67;;;;;;;38.05;nan;101912.69;5014798;28;20044;-59
2022/08/12 10:51:24;;;;;;;8.18;3.53;;;;;;;38.23;nan;101910.22;5013442;28;20042;-59
2022/08/12 10:53:53;;;;;;;6.90;2.95;;;;;;;38.15;nan;101909.56;5014446;28;20160;-61
2022/08/12 10:56:18;;;;;;;5.55;2.70;;;;;;;38.33;nan;101911.75;5029768;28;20081;-61
2022/08/12 10:58:44;;;;;;;5.80;2.88;;;;;;;37.83;nan;101902.78;5029700;28;20034;-60
2022/08/12 11:01:09;;;;;;;6.75;3.58;;;;;;;37.71;nan;101894.25;5014170;28;20500;-61
2022/08/12 11:03:36;;;;;;;6.53;2.65;;;;;;;38.23;nan;101903.88;5013399;28;20033;-62
2022/08/12 11:06:06;;;;;;;4.82;2.20;;;;;;;37.84;nan;101854.16;5029554;28;20034;-62
2022/08/12 11:08:33;;;;;;;;;;;;;;;38.09;nan;101897.44;5014643;28;20037;-62
2022/08/12 11:10:58;;;;;;;3.88;2.40;;;;;;;38.36;nan;101879.19;5028977;28;19914;-62
2022/08/12 11:13:24;;;;;;;6.35;2.90;;;;;;;38.63;nan;101886.47;5014205;28;20040;-60
2022/08/12 11:15:49;;;;;;;7.80;1.95;;;;;;;38.63;nan;101844.34;5029650;28;20434;-62
2022/08/12 11:18:14;;;;;;;5.37;2.30;;;;;;;38.61;nan;101833.56;5014331;28;20470;-61
2022/08/12 11:20:40;;;;;;;8.00;2.67;;;;;;;38.65;nan;101876.09;5014283;28;20412;-63
2022/08/12 11:23:05;;;;;;;3.17;2.08;;;;;;;38.56;nan;101860.81;5013991;28;20029;-62
2022/08/12 11:25:31;;;;;;;6.18;2.78;;;;;;;38.34;nan;101866.69;5013976;28;20030;-63
2022/08/12 11:27:56;;;;;;;7.22;1.92;;;;;;;38.48;nan;101835.41;5014313;28;20408;-61
2022/08/12 11:30:21;;;;;;;2.78;2.25;;;;;;;39.15;nan;101862.81;5029336;28;20038;-62
2022/08/12 11:32:47;;;;;;;1.80;1.70;;;;;;;39.12;nan;101831.03;5013689;28;20108;-63
2022/08/12 11:35:12;;;;;;;4.05;3.05;;;;;;;39.82;nan;101851.50;5013833;28;20080;-63
2022/08/12 11:37:39;;;;;;;7.47;2.28;;;;;;;39.96;nan;101844.06;5013924;28;20037;-63
2022/08/12 11:40:08;;;;;;;3.70;2.13;;;;;;;39.55;nan;101852.63;5012765;28;20448;-63
2022/08/12 11:42:34;;;;;;;7.07;2.35;;;;;;;39.65;nan;101801.53;5012642;28;20042;-63
2022/08/12 11:45:00;;;;;;;4.38;2.33;;;;;;;40.16;nan;101836.56;5013732;28;20022;-63
2022/08/12 11:47:25;;;;;;;5.00;2.53;;;;;;;40.57;nan;101849.94;5013701;28;20496;-64
2022/08/12 11:49:50;;;;;;;5.10;2.60;;;;;;;39.97;nan;101838.31;5013713;28;20049;-63
2022/08/12 11:52:16;;;;;;;3.33;2.07;;;;;;;40.32;nan;101841.53;5013688;28;20293;-64
2022/08/12 11:54:41;;;;;;;3.75;2.20;;;;;;;40.53;nan;101843.16;5013415;28;20281;-64
2022/08/12 11:57:06;;;;;;;6.57;2.40;;;;;;;40.21;nan;101842.25;5012590;28;20049;-62
2022/08/12 11:59:32;;;;;;;6.32;2.35;;;;;;;39.83;nan;101793.41;5013653;28;20034;-64
2022/08/12 12:01:57;;;;;;;6.38;2.15;;;;;;;39.75;nan;101803.84;5013688;28;20056;-63
2022/08/12 12:04:23;;;;;;;4.75;2.53;;;;;;;40.10;nan;101827.25;5013117;28;20104;-64
2022/08/12 12:06:48;;;;;;;6.60;2.50;;;;;;;40.10;nan;101799.69;5011492;28;20490;-63
2022/08/12 12:09:13;;;;;;;2.83;2.58;;;;;;;40.52;nan;101836.78;5013021;28;20277;-65
2022/08/12 12:11:39;;;;;;;10.63;2.47;;;;;;;40.96;nan;101830.31;5012636;28;20080;-63
2022/08/12 12:14:04;;;;;;;5.07;2.38;;;;;;;41.25;nan;101832.38;5028048;28;20304;-63
2022/08/12 12:16:30;;;;;;;2.75;2.17;;;;;;;41.27;nan;101823.88;5012597;28;20524;-63
2022/08/12 12:18:55;;;;;;;2.67;2.42;;;;;;;41.02;nan;101834.09;5013208;28;20034;-63
2022/08/12 12:21:22;;;;;;;3.03;2.42;;;;;;;41.08;nan;101834.03;5013135;28;20116;-64
2022/08/12 12:23:47;;;;;;;4.93;2.58;;;;;;;40.73;nan;101783.97;5012672;28;20048;-64
2022/08/12 12:26:13;;;;;;;4.57;2.00;;;;;;;40.93;nan;101828.00;5012921;28;20400;-65
2022/08/12 12:28:40;;;;;;;2.45;2.25;;;;;;;40.95;nan;101812.06;5011672;28;20281;-65
2022/08/12 12:31:05;;;;;;;2.58;2.15;;;;;;;40.99;nan;101813.28;5011862;28;20034;-64
2022/08/12 12:33:31;;;;;;;11.13;2.50;;;;;;;40.53;nan;101793.47;5011561;28;20444;-65
2022/08/12 12:35:56;;;;;;;5.65;1.90;;;;;;;40.90;nan;101815.47;5012446;28;20037;-64
2022/08/12 12:38:21;;;;;;;2.83;2.07;;;;;;;40.78;nan;101803.44;5012785;28;20402;-64
2022/08/12 12:40:47;;;;;;;4.72;2.05;;;;;;;40.67;nan;101775.75;5012380;28;20415;-65
2022/08/12 12:43:14;;;;;;;4.28;2.42;;;;;;;40.93;nan;101770.00;5013049;28;20477;-64
2022/08/12 12:45:40;;;;;;;4.85;2.00;;;;;;;41.45;nan;101805.41;5027861;28;20064;-65
2022/08/12 12:48:08;;;;;;;9.18;2.08;;;;;;;41.36;nan;101798.50;5012753;28;20034;-64
2022/08/12 12:50:38;;;;;;;4.00;1.85;;;;;;;41.36;nan;101801.25;5012607;28;20044;-66
2022/08/12 12:53:05;;;;;;;4.30;2.15;;;;;;;41.15;nan;101768.53;5012618;28;20050;-65
2022/08/12 12:55:34;;;;;;;2.05;1.90;;;;;;;41.29;nan;101786.66;5012295;28;20076;-63
2022/08/12 12:58:10;;;;;;;5.65;2.17;;;;;;;41.25;nan;101788.16;5012602;28;20034;-65
2022/08/12 13:00:39;;;;;;;5.93;2.53;;;;;;;41.66;nan;101748.81;5012595;28;20034;-66
2022/08/12 13:03:04;;;;;;;2.40;2.20;;;;;;;42.20;nan;101788.56;5027334;28;20026;-64
2022/08/12 13:05:34;;;;;;;4.88;1.98;;;;;;;42.13;nan;101783.06;5012294;28;20096;-63
2022/08/12 13:08:02;;;;;;;2.40;2.20;;;;;;;42.44;nan;101755.16;5012595;28;20061;-65
2022/08/12 13:10:29;;;;;;;4.25;1.98;;;;;;;42.71;nan;101736.22;5027610;28;20058;-64
2022/08/12 13:12:54;;;;;;;3.90;2.83;;;;;;;42.75;nan;101784.50;5012391;28;20382;-66
2022/08/12 13:15:20;;;;;;;4.63;2.17;;;;;;;42.95;nan;101773.06;5012434;28;20096;-64
2022/08/12 13:17:48;;;;;;;6.90;2.70;;;;;;;42.63;nan;101772.56;5012393;28;20037;-65
2022/08/12 13:20:15;;;;;;;7.22;2.58;;;;;;;42.55;nan;101747.97;5012208;28;20137;-65
2022/08/12 13:22:41;;;;;;;4.45;2.40;;;;;;;41.86;nan;101777.06;5012159;28;20125;-65
2022/08/12 13:25:06;;;;;;;3.47;2.60;;;;;;;41.26;nan;101769.69;5012076;28;20121;-64
2022/08/12 13:27:35;;;;;;;3.28;2.70;;;;;;;40.94;nan;101783.59;5012354;28;20366;-63
2022/08/12 13:30:02;;;;;;;7.60;2.55;;;;;;;40.23;nan;101760.97;5027572;28;20492;-63
2022/08/12 13:32:28;;;;;;;6.50;2.63;;;;;;;40.56;nan;101776.47;5012109;28;20030;-65
2022/08/12 13:34:54;;;;;;;5.07;2.50;;;;;;;40.66;nan;101766.59;5027349;28;20049;-66
2022/08/12 13:37:25;;;;;;;6.00;2.60;;;;;;;41.49;nan;101780.91;5012482;28;20038;-65
2022/08/12 13:39:51;;;;;;;3.70;2.70;;;;;;;41.51;nan;101717.97;5012255;28;20392;-65
2022/08/12 13:42:17;;;;;;;5.72;2.65;;;;;;;41.50;nan;101758.59;5012298;28;20029;-65
2022/08/12 13:44:43;;;;;;;5.13;2.55;;;;;;;41.01;nan;101780.78;5012167;28;20096;-64